sensor_id;sensor_type;location;lat;lon;timestamp;temperature;humidity
9425;DHT22;17139;52.140;11.636;2023-06-22T00:01:20;21.10;52.60
9425;DHT22;17139;52.140;11.636;2023-06-22T00:03:48;21.00;52.60
9425;DHT22;17139;52.140;11.636;2023-06-22T00:06:15;21.00;52.70
9425;DHT22;17139;52.140;11.636;2023-06-22T00:08:42;20.90;52.70
9425;DHT22;17139;52.140;11.636;2023-06-22T00:11:10;20.90;52.80
9425;DHT22;17139;52.140;11.636;2023-06-22T00:13:37;20.80;52.80
9425;DHT22;17139;52.140;11.636;2023-06-22T00:16:05;21.10;53.50
9425;DHT22;17139;52.140;11.636;2023-06-22T00:18:32;21.00;52.70
9425;DHT22;17139;52.140;11.636;2023-06-22T00:20:59;20.90;52.90
9425;DHT22;17139;52.140;11.636;2023-06-22T00:23:26;20.80;52.90
9425;DHT22;17139;52.140;11.636;2023-06-22T00:25:53;20.70;52.90
9425;DHT22;17139;52.140;11.636;2023-06-22T00:28:21;20.70;53.00
9425;DHT22;17139;52.140;11.636;2023-06-22T00:30:49;20.60;53.00
9425;DHT22;17139;52.140;11.636;2023-06-22T00:33:16;20.60;53.10
9425;DHT22;17139;52.140;11.636;2023-06-22T00:35:43;20.60;53.10
9425;DHT22;17139;52.140;11.636;2023-06-22T00:38:10;20.50;53.00
9425;DHT22;17139;52.140;11.636;2023-06-22T00:40:37;21.00;54.00
9425;DHT22;17139;52.140;11.636;2023-06-22T00:43:05;20.90;53.00
9425;DHT22;17139;52.140;11.636;2023-06-22T00:45:34;20.70;53.10
9425;DHT22;17139;52.140;11.636;2023-06-22T00:48:01;21.50;53.90
9425;DHT22;17139;52.140;11.636;2023-06-22T00:50:30;21.20;53.00
9425;DHT22;17139;52.140;11.636;2023-06-22T00:53:00;20.90;53.00
9425;DHT22;17139;52.140;11.636;2023-06-22T00:55:30;20.80;53.20
9425;DHT22;17139;52.140;11.636;2023-06-22T00:57:57;20.70;53.30
9425;DHT22;17139;52.140;11.636;2023-06-22T01:00:25;20.60;53.30
9425;DHT22;17139;52.140;11.636;2023-06-22T01:02:53;20.50;53.30
9425;DHT22;17139;52.140;11.636;2023-06-22T01:05:22;20.50;53.50
9425;DHT22;17139;52.140;11.636;2023-06-22T01:08:04;20.40;53.50
9425;DHT22;17139;52.140;11.636;2023-06-22T01:10:38;20.40;53.60
9425;DHT22;17139;52.140;11.636;2023-06-22T01:13:10;21.30;54.40
9425;DHT22;17139;52.140;11.636;2023-06-22T01:15:44;21.00;53.50
9425;DHT22;17139;52.140;11.636;2023-06-22T01:18:17;20.70;53.60
9425;DHT22;17139;52.140;11.636;2023-06-22T01:20:46;20.50;53.70
9425;DHT22;17139;52.140;11.636;2023-06-22T01:23:23;20.30;53.80
9425;DHT22;17139;52.140;11.636;2023-06-22T01:25:59;20.30;54.10
9425;DHT22;17139;52.140;11.636;2023-06-22T01:28:45;20.20;54.10
9425;DHT22;17139;52.140;11.636;2023-06-22T01:31:14;20.50;54.80
9425;DHT22;17139;52.140;11.636;2023-06-22T01:33:45;20.40;54.00
9425;DHT22;17139;52.140;11.636;2023-06-22T01:36:14;20.20;54.10
9425;DHT22;17139;52.140;11.636;2023-06-22T01:38:43;20.10;54.10
9425;DHT22;17139;52.140;11.636;2023-06-22T01:41:11;20.10;54.20
9425;DHT22;17139;52.140;11.636;2023-06-22T01:43:40;20.00;54.30
9425;DHT22;17139;52.140;11.636;2023-06-22T01:46:08;19.90;54.30
9425;DHT22;17139;52.140;11.636;2023-06-22T01:48:35;19.90;54.30
9425;DHT22;17139;52.140;11.636;2023-06-22T01:51:03;19.80;54.20
9425;DHT22;17139;52.140;11.636;2023-06-22T01:53:30;19.80;54.10
9425;DHT22;17139;52.140;11.636;2023-06-22T01:55:57;20.10;55.00
9425;DHT22;17139;52.140;11.636;2023-06-22T01:58:27;20.00;54.10
9425;DHT22;17139;52.140;11.636;2023-06-22T02:01:00;19.90;54.10
9425;DHT22;17139;52.140;11.636;2023-06-22T02:03:32;20.60;54.40
9425;DHT22;17139;52.140;11.636;2023-06-22T02:06:04;20.40;53.80
9425;DHT22;17139;52.140;11.636;2023-06-22T02:08:35;20.10;53.90
9425;DHT22;17139;52.140;11.636;2023-06-22T02:11:04;19.90;54.00
9425;DHT22;17139;52.140;11.636;2023-06-22T02:13:33;19.80;54.00
9425;DHT22;17139;52.140;11.636;2023-06-22T02:16:02;19.70;54.00
9425;DHT22;17139;52.140;11.636;2023-06-22T02:18:30;19.70;54.10
9425;DHT22;17139;52.140;11.636;2023-06-22T02:20:57;19.70;54.20
9425;DHT22;17139;52.140;11.636;2023-06-22T02:23:24;19.60;54.00
9425;DHT22;17139;52.140;11.636;2023-06-22T02:25:52;19.50;53.90
9425;DHT22;17139;52.140;11.636;2023-06-22T02:28:19;20.10;54.30
9425;DHT22;17139;52.140;11.636;2023-06-22T02:30:46;20.00;53.60
9425;DHT22;17139;52.140;11.636;2023-06-22T02:33:15;19.80;53.70
9425;DHT22;17139;52.140;11.636;2023-06-22T02:35:42;19.70;53.90
9425;DHT22;17139;52.140;11.636;2023-06-22T02:38:11;19.60;54.00
9425;DHT22;17139;52.140;11.636;2023-06-22T02:40:38;19.50;54.00
9425;DHT22;17139;52.140;11.636;2023-06-22T02:43:05;19.50;54.10
9425;DHT22;17139;52.140;11.636;2023-06-22T02:45:32;19.50;54.70
9425;DHT22;17139;52.140;11.636;2023-06-22T02:47:59;20.10;54.50
9425;DHT22;17139;52.140;11.636;2023-06-22T02:50:27;19.90;53.60
9425;DHT22;17139;52.140;11.636;2023-06-22T02:52:54;19.90;54.10
9425;DHT22;17139;52.140;11.636;2023-06-22T02:55:21;19.70;53.60
9425;DHT22;17139;52.140;11.636;2023-06-22T02:57:49;19.60;53.70
9425;DHT22;17139;52.140;11.636;2023-06-22T03:00:19;19.50;53.80
9425;DHT22;17139;52.140;11.636;2023-06-22T03:02:48;19.50;53.70
9425;DHT22;17139;52.140;11.636;2023-06-22T03:05:15;19.50;53.80
9425;DHT22;17139;52.140;11.636;2023-06-22T03:07:45;19.50;53.80
9425;DHT22;17139;52.140;11.636;2023-06-22T03:10:13;19.50;53.70
9425;DHT22;17139;52.140;11.636;2023-06-22T03:12:41;19.50;53.90
9425;DHT22;17139;52.140;11.636;2023-06-22T03:15:10;19.50;53.60
9425;DHT22;17139;52.140;11.636;2023-06-22T03:17:38;19.50;53.50
9425;DHT22;17139;52.140;11.636;2023-06-22T03:20:07;20.30;53.90
9425;DHT22;17139;52.140;11.636;2023-06-22T03:22:36;20.10;53.20
9425;DHT22;17139;52.140;11.636;2023-06-22T03:25:05;19.90;53.30
9425;DHT22;17139;52.140;11.636;2023-06-22T03:27:36;19.90;53.40
9425;DHT22;17139;52.140;11.636;2023-06-22T03:30:03;19.80;53.40
9425;DHT22;17139;52.140;11.636;2023-06-22T03:32:31;19.80;53.50
9425;DHT22;17139;52.140;11.636;2023-06-22T03:34:58;19.80;53.50
9425;DHT22;17139;52.140;11.636;2023-06-22T03:37:25;19.80;53.50
9425;DHT22;17139;52.140;11.636;2023-06-22T03:39:52;20.60;54.00
9425;DHT22;17139;52.140;11.636;2023-06-22T03:42:21;20.40;53.10
9425;DHT22;17139;52.140;11.636;2023-06-22T03:44:48;20.70;53.80
9425;DHT22;17139;52.140;11.636;2023-06-22T03:47:15;20.50;53.20
9425;DHT22;17139;52.140;11.636;2023-06-22T03:49:42;20.40;53.40
9425;DHT22;17139;52.140;11.636;2023-06-22T03:52:09;20.30;53.40
9425;DHT22;17139;52.140;11.636;2023-06-22T03:54:36;20.20;53.30
9425;DHT22;17139;52.140;11.636;2023-06-22T03:57:04;20.20;53.40
9425;DHT22;17139;52.140;11.636;2023-06-22T03:59:32;20.20;53.50
9425;DHT22;17139;52.140;11.636;2023-06-22T04:01:59;20.20;53.60
9425;DHT22;17139;52.140;11.636;2023-06-22T04:04:26;20.60;54.10
9425;DHT22;17139;52.140;11.636;2023-06-22T04:06:54;20.50;53.50
9425;DHT22;17139;52.140;11.636;2023-06-22T04:09:21;20.40;53.50
9425;DHT22;17139;52.140;11.636;2023-06-22T04:11:48;21.20;53.80
9425;DHT22;17139;52.140;11.636;2023-06-22T04:14:15;20.90;53.20
9425;DHT22;17139;52.140;11.636;2023-06-22T04:16:43;20.80;53.40
9425;DHT22;17139;52.140;11.636;2023-06-22T04:19:10;20.60;53.50
9425;DHT22;17139;52.140;11.636;2023-06-22T04:21:41;20.60;53.70
9425;DHT22;17139;52.140;11.636;2023-06-22T04:24:08;20.60;53.70
9425;DHT22;17139;52.140;11.636;2023-06-22T04:26:35;20.50;53.70
9425;DHT22;17139;52.140;11.636;2023-06-22T04:29:03;20.60;54.10
9425;DHT22;17139;52.140;11.636;2023-06-22T04:31:31;20.60;53.80
9425;DHT22;17139;52.140;11.636;2023-06-22T04:34:04;20.60;53.80
9425;DHT22;17139;52.140;11.636;2023-06-22T04:36:34;20.90;54.40
9425;DHT22;17139;52.140;11.636;2023-06-22T04:39:04;20.80;53.90
9425;DHT22;17139;52.140;11.636;2023-06-22T04:41:32;20.80;54.10
9425;DHT22;17139;52.140;11.636;2023-06-22T04:44:08;21.10;54.30
9425;DHT22;17139;52.140;11.636;2023-06-22T04:46:35;21.40;54.20
9425;DHT22;17139;52.140;11.636;2023-06-22T04:49:06;21.80;53.90
9425;DHT22;17139;52.140;11.636;2023-06-22T04:51:38;22.10;53.70
9425;DHT22;17139;52.140;11.636;2023-06-22T04:54:06;22.40;53.40
9425;DHT22;17139;52.140;11.636;2023-06-22T04:56:33;23.70;51.80
9425;DHT22;17139;52.140;11.636;2023-06-22T04:59:01;23.50;51.90
9425;DHT22;17139;52.140;11.636;2023-06-22T05:01:28;24.10;51.10
9425;DHT22;17139;52.140;11.636;2023-06-22T05:04:00;23.70;51.40
9425;DHT22;17139;52.140;11.636;2023-06-22T05:06:29;23.40;52.50
9425;DHT22;17139;52.140;11.636;2023-06-22T05:08:57;23.20;52.20
9425;DHT22;17139;52.140;11.636;2023-06-22T05:11:25;23.00;52.50
9425;DHT22;17139;52.140;11.636;2023-06-22T05:13:52;22.80;52.70
9425;DHT22;17139;52.140;11.636;2023-06-22T05:16:20;22.60;52.80
9425;DHT22;17139;52.140;11.636;2023-06-22T05:18:50;22.60;53.10
9425;DHT22;17139;52.140;11.636;2023-06-22T05:21:18;22.40;53.00
9425;DHT22;17139;52.140;11.636;2023-06-22T05:23:46;22.30;53.10
9425;DHT22;17139;52.140;11.636;2023-06-22T05:26:13;23.00;53.20
9425;DHT22;17139;52.140;11.636;2023-06-22T05:28:40;22.70;52.70
9425;DHT22;17139;52.140;11.636;2023-06-22T05:31:07;22.60;53.10
9425;DHT22;17139;52.140;11.636;2023-06-22T05:33:34;22.50;53.00
9425;DHT22;17139;52.140;11.636;2023-06-22T05:36:01;22.50;53.10
9425;DHT22;17139;52.140;11.636;2023-06-22T05:38:28;22.40;53.30
9425;DHT22;17139;52.140;11.636;2023-06-22T05:40:57;22.40;53.30
9425;DHT22;17139;52.140;11.636;2023-06-22T05:43:24;22.40;53.40
9425;DHT22;17139;52.140;11.636;2023-06-22T05:45:51;23.10;53.40
9425;DHT22;17139;52.140;11.636;2023-06-22T05:48:18;23.10;52.90
9425;DHT22;17139;52.140;11.636;2023-06-22T05:50:45;23.40;52.90
9425;DHT22;17139;52.140;11.636;2023-06-22T05:53:12;23.30;52.80
9425;DHT22;17139;52.140;11.636;2023-06-22T05:55:39;23.30;53.00
9425;DHT22;17139;52.140;11.636;2023-06-22T05:58:07;23.20;53.00
9425;DHT22;17139;52.140;11.636;2023-06-22T06:00:35;23.20;53.10
9425;DHT22;17139;52.140;11.636;2023-06-22T06:03:02;23.30;53.20
9425;DHT22;17139;52.140;11.636;2023-06-22T06:05:30;23.30;53.10
9425;DHT22;17139;52.140;11.636;2023-06-22T06:07:57;23.30;53.00
9425;DHT22;17139;52.140;11.636;2023-06-22T06:10:24;23.90;52.90
9425;DHT22;17139;52.140;11.636;2023-06-22T06:12:51;23.70;52.40
9425;DHT22;17139;52.140;11.636;2023-06-22T06:15:20;23.40;52.70
9425;DHT22;17139;52.140;11.636;2023-06-22T06:17:47;24.10;52.60
9425;DHT22;17139;52.140;11.636;2023-06-22T06:20:15;23.80;52.40
9425;DHT22;17139;52.140;11.636;2023-06-22T06:22:42;23.60;52.70
9425;DHT22;17139;52.140;11.636;2023-06-22T06:25:09;23.50;53.10
9425;DHT22;17139;52.140;11.636;2023-06-22T06:27:42;24.20;53.20
9425;DHT22;17139;52.140;11.636;2023-06-22T06:30:10;23.90;52.50
9425;DHT22;17139;52.140;11.636;2023-06-22T06:32:39;23.80;52.80
9425;DHT22;17139;52.140;11.636;2023-06-22T06:35:07;24.30;52.60
9425;DHT22;17139;52.140;11.636;2023-06-22T06:37:36;24.10;52.50
9425;DHT22;17139;52.140;11.636;2023-06-22T06:40:04;24.10;52.90
9425;DHT22;17139;52.140;11.636;2023-06-22T06:42:33;24.20;52.90
9425;DHT22;17139;52.140;11.636;2023-06-22T06:45:00;24.40;52.90
9425;DHT22;17139;52.140;11.636;2023-06-22T06:47:27;24.80;52.60
9425;DHT22;17139;52.140;11.636;2023-06-22T06:49:56;25.20;52.00
9425;DHT22;17139;52.140;11.636;2023-06-22T06:52:22;25.50;51.80
9425;DHT22;17139;52.140;11.636;2023-06-22T06:54:49;25.70;51.40
9425;DHT22;17139;52.140;11.636;2023-06-22T06:57:18;25.80;51.30
9425;DHT22;17139;52.140;11.636;2023-06-22T06:59:46;26.40;50.40
9425;DHT22;17139;52.140;11.636;2023-06-22T07:02:13;26.20;50.60
9425;DHT22;17139;52.140;11.636;2023-06-22T07:04:40;26.00;50.90
9425;DHT22;17139;52.140;11.636;2023-06-22T07:07:08;25.90;51.30
9425;DHT22;17139;52.140;11.636;2023-06-22T07:09:35;25.90;51.50
9425;DHT22;17139;52.140;11.636;2023-06-22T07:12:03;25.90;51.70
9425;DHT22;17139;52.140;11.636;2023-06-22T07:14:30;25.90;51.80
9425;DHT22;17139;52.140;11.636;2023-06-22T07:16:57;26.00;51.50
9425;DHT22;17139;52.140;11.636;2023-06-22T07:19:25;25.90;51.60
9425;DHT22;17139;52.140;11.636;2023-06-22T07:21:52;26.00;52.00
9425;DHT22;17139;52.140;11.636;2023-06-22T07:24:21;26.10;51.80
9425;DHT22;17139;52.140;11.636;2023-06-22T07:26:48;26.30;51.50
9425;DHT22;17139;52.140;11.636;2023-06-22T07:29:16;26.30;51.30
9425;DHT22;17139;52.140;11.636;2023-06-22T07:31:45;27.20;49.30
9425;DHT22;17139;52.140;11.636;2023-06-22T07:34:12;27.00;50.10
9425;DHT22;17139;52.140;11.636;2023-06-22T07:36:39;26.80;50.50
9425;DHT22;17139;52.140;11.636;2023-06-22T07:39:06;26.70;50.70
9425;DHT22;17139;52.140;11.636;2023-06-22T07:41:35;26.70;51.00
9425;DHT22;17139;52.140;11.636;2023-06-22T07:44:02;26.70;50.80
9425;DHT22;17139;52.140;11.636;2023-06-22T07:46:29;26.60;51.00
9425;DHT22;17139;52.140;11.636;2023-06-22T07:48:56;26.70;51.10
9425;DHT22;17139;52.140;11.636;2023-06-22T07:51:25;26.70;50.90
9425;DHT22;17139;52.140;11.636;2023-06-22T07:53:52;26.70;50.80
9425;DHT22;17139;52.140;11.636;2023-06-22T07:56:20;27.40;48.60
9425;DHT22;17139;52.140;11.636;2023-06-22T07:58:48;27.00;49.60
9425;DHT22;17139;52.140;11.636;2023-06-22T08:01:15;26.90;50.10
9425;DHT22;17139;52.140;11.636;2023-06-22T08:03:45;26.80;50.30
9425;DHT22;17139;52.140;11.636;2023-06-22T08:06:12;26.80;50.40
9425;DHT22;17139;52.140;11.636;2023-06-22T08:08:39;26.80;50.60
9425;DHT22;17139;52.140;11.636;2023-06-22T08:11:06;26.70;50.60
9425;DHT22;17139;52.140;11.636;2023-06-22T08:13:33;26.60;50.60
9425;DHT22;17139;52.140;11.636;2023-06-22T08:16:01;27.50;48.10
9425;DHT22;17139;52.140;11.636;2023-06-22T08:18:28;27.20;49.30
9425;DHT22;17139;52.140;11.636;2023-06-22T08:20:55;27.60;48.20
9425;DHT22;17139;52.140;11.636;2023-06-22T08:23:22;27.40;49.00
9425;DHT22;17139;52.140;11.636;2023-06-22T08:25:49;27.30;49.30
9425;DHT22;17139;52.140;11.636;2023-06-22T08:28:16;27.30;49.40
9425;DHT22;17139;52.140;11.636;2023-06-22T08:30:44;27.40;49.60
9425;DHT22;17139;52.140;11.636;2023-06-22T08:33:12;27.50;49.40
9425;DHT22;17139;52.140;11.636;2023-06-22T08:35:39;27.70;49.20
9425;DHT22;17139;52.140;11.636;2023-06-22T08:38:06;27.80;49.30
9425;DHT22;17139;52.140;11.636;2023-06-22T08:40:34;28.60;47.20
9425;DHT22;17139;52.140;11.636;2023-06-22T08:43:01;28.40;47.90
9425;DHT22;17139;52.140;11.636;2023-06-22T08:45:28;28.70;47.20
9425;DHT22;17139;52.140;11.636;2023-06-22T08:47:55;28.50;47.60
9425;DHT22;17139;52.140;11.636;2023-06-22T08:50:24;28.40;48.40
9425;DHT22;17139;52.140;11.636;2023-06-22T08:52:51;28.50;48.30
9425;DHT22;17139;52.140;11.636;2023-06-22T08:55:18;28.60;48.40
9425;DHT22;17139;52.140;11.636;2023-06-22T08:57:45;28.70;48.50
9425;DHT22;17139;52.140;11.636;2023-06-22T09:00:13;28.70;48.50
9425;DHT22;17139;52.140;11.636;2023-06-22T09:02:44;28.70;48.50
9425;DHT22;17139;52.140;11.636;2023-06-22T09:05:11;29.30;45.50
9425;DHT22;17139;52.140;11.636;2023-06-22T09:07:41;28.90;47.20
9425;DHT22;17139;52.140;11.636;2023-06-22T09:10:09;28.80;46.60
9425;DHT22;17139;52.140;11.636;2023-06-22T09:12:36;28.70;48.40
9425;DHT22;17139;52.140;11.636;2023-06-22T09:15:04;28.70;48.10
9425;DHT22;17139;52.140;11.636;2023-06-22T09:17:33;28.60;48.10
9425;DHT22;17139;52.140;11.636;2023-06-22T09:20:01;28.60;48.10
9425;DHT22;17139;52.140;11.636;2023-06-22T09:22:31;28.50;48.30
9425;DHT22;17139;52.140;11.636;2023-06-22T09:24:59;28.60;48.30
9425;DHT22;17139;52.140;11.636;2023-06-22T09:27:26;28.60;48.10
9425;DHT22;17139;52.140;11.636;2023-06-22T09:29:54;28.70;48.30
9425;DHT22;17139;52.140;11.636;2023-06-22T09:32:21;28.60;48.00
9425;DHT22;17139;52.140;11.636;2023-06-22T09:34:48;28.60;48.30
9425;DHT22;17139;52.140;11.636;2023-06-22T09:37:15;29.40;45.80
9425;DHT22;17139;52.140;11.636;2023-06-22T09:39:42;29.10;46.80
9425;DHT22;17139;52.140;11.636;2023-06-22T09:42:10;28.90;47.50
9425;DHT22;17139;52.140;11.636;2023-06-22T09:44:39;28.80;47.80
9425;DHT22;17139;52.140;11.636;2023-06-22T09:47:06;28.70;47.70
9425;DHT22;17139;52.140;11.636;2023-06-22T09:49:33;28.70;48.10
9425;DHT22;17139;52.140;11.636;2023-06-22T09:52:00;28.60;47.80
9425;DHT22;17139;52.140;11.636;2023-06-22T09:54:27;28.50;49.00
9425;DHT22;17139;52.140;11.636;2023-06-22T09:56:54;28.50;48.10
9425;DHT22;17139;52.140;11.636;2023-06-22T09:59:23;28.40;48.00
9425;DHT22;17139;52.140;11.636;2023-06-22T10:01:50;28.60;46.70
9425;DHT22;17139;52.140;11.636;2023-06-22T10:04:17;28.50;48.50
9425;DHT22;17139;52.140;11.636;2023-06-22T10:06:44;28.60;48.40
9425;DHT22;17139;52.140;11.636;2023-06-22T10:09:11;28.80;48.10
9425;DHT22;17139;52.140;11.636;2023-06-22T10:11:38;29.60;46.00
9425;DHT22;17139;52.140;11.636;2023-06-22T10:14:05;29.40;46.70
9425;DHT22;17139;52.140;11.636;2023-06-22T10:16:36;29.90;45.00
9425;DHT22;17139;52.140;11.636;2023-06-22T10:19:03;29.50;46.30
9425;DHT22;17139;52.140;11.636;2023-06-22T10:21:30;29.40;45.70
9425;DHT22;17139;52.140;11.636;2023-06-22T10:23:57;29.10;46.70
9425;DHT22;17139;52.140;11.636;2023-06-22T10:26:24;28.80;47.20
9425;DHT22;17139;52.140;11.636;2023-06-22T10:28:54;29.00;46.30
9425;DHT22;17139;52.140;11.636;2023-06-22T10:31:21;28.70;47.30
9425;DHT22;17139;52.140;11.636;2023-06-22T10:33:49;28.50;47.60
9425;DHT22;17139;52.140;11.636;2023-06-22T10:36:16;28.80;47.00
9425;DHT22;17139;52.140;11.636;2023-06-22T10:38:43;28.80;47.40
9425;DHT22;17139;52.140;11.636;2023-06-22T10:41:11;28.80;47.30
9425;DHT22;17139;52.140;11.636;2023-06-22T10:43:38;28.80;47.50
9425;DHT22;17139;52.140;11.636;2023-06-22T10:46:06;28.60;47.70
9425;DHT22;17139;52.140;11.636;2023-06-22T10:48:33;29.20;45.60
9425;DHT22;17139;52.140;11.636;2023-06-22T10:51:01;28.80;46.70
9425;DHT22;17139;52.140;11.636;2023-06-22T10:53:28;28.60;47.20
9425;DHT22;17139;52.140;11.636;2023-06-22T10:55:55;29.00;46.60
9425;DHT22;17139;52.140;11.636;2023-06-22T10:58:22;28.90;47.00
9425;DHT22;17139;52.140;11.636;2023-06-22T11:00:49;29.00;46.90
9425;DHT22;17139;52.140;11.636;2023-06-22T11:03:16;29.10;47.10
9425;DHT22;17139;52.140;11.636;2023-06-22T11:05:43;29.20;47.20
9425;DHT22;17139;52.140;11.636;2023-06-22T11:08:13;29.30;46.90
9425;DHT22;17139;52.140;11.636;2023-06-22T11:10:40;29.30;46.70
9425;DHT22;17139;52.140;11.636;2023-06-22T11:13:06;29.20;46.90
9425;DHT22;17139;52.140;11.636;2023-06-22T11:15:35;29.10;47.10
9425;DHT22;17139;52.140;11.636;2023-06-22T11:18:03;29.50;45.90
9425;DHT22;17139;52.140;11.636;2023-06-22T11:20:31;29.30;46.60
9425;DHT22;17139;52.140;11.636;2023-06-22T11:23:00;29.60;45.20
9425;DHT22;17139;52.140;11.636;2023-06-22T11:25:28;29.30;46.10
9425;DHT22;17139;52.140;11.636;2023-06-22T11:27:55;29.00;46.80
9425;DHT22;17139;52.140;11.636;2023-06-22T11:30:23;28.80;47.20
9425;DHT22;17139;52.140;11.636;2023-06-22T11:32:51;28.70;47.60
9425;DHT22;17139;52.140;11.636;2023-06-22T11:35:18;28.70;47.70
9425;DHT22;17139;52.140;11.636;2023-06-22T11:37:45;28.60;47.50
9425;DHT22;17139;52.140;11.636;2023-06-22T11:40:12;28.60;47.70
9425;DHT22;17139;52.140;11.636;2023-06-22T11:42:41;28.80;47.80
9425;DHT22;17139;52.140;11.636;2023-06-22T11:45:08;29.50;45.20
9425;DHT22;17139;52.140;11.636;2023-06-22T11:47:35;29.20;46.20
9425;DHT22;17139;52.140;11.636;2023-06-22T11:50:03;29.20;46.90
9425;DHT22;17139;52.140;11.636;2023-06-22T11:52:30;29.20;46.90
9425;DHT22;17139;52.140;11.636;2023-06-22T11:54:57;29.10;46.70
9425;DHT22;17139;52.140;11.636;2023-06-22T11:57:25;29.10;46.90
9425;DHT22;17139;52.140;11.636;2023-06-22T11:59:53;29.10;46.50
9425;DHT22;17139;52.140;11.636;2023-06-22T12:02:20;29.10;46.80
9425;DHT22;17139;52.140;11.636;2023-06-22T12:04:47;28.90;46.80
9425;DHT22;17139;52.140;11.636;2023-06-22T12:07:18;28.90;47.00
9425;DHT22;17139;52.140;11.636;2023-06-22T12:09:45;28.90;47.20
9425;DHT22;17139;52.140;11.636;2023-06-22T12:12:12;29.00;47.10
9425;DHT22;17139;52.140;11.636;2023-06-22T12:14:39;29.10;47.10
9425;DHT22;17139;52.140;11.636;2023-06-22T12:17:07;29.30;46.90
9425;DHT22;17139;52.140;11.636;2023-06-22T12:19:34;29.50;46.70
9425;DHT22;17139;52.140;11.636;2023-06-22T12:22:01;30.10;44.70
9425;DHT22;17139;52.140;11.636;2023-06-22T12:24:28;29.80;45.50
9425;DHT22;17139;52.140;11.636;2023-06-22T12:26:56;30.00;45.10
9425;DHT22;17139;52.140;11.636;2023-06-22T12:29:23;29.90;45.60
9425;DHT22;17139;52.140;11.636;2023-06-22T12:31:50;29.70;46.00
9425;DHT22;17139;52.140;11.636;2023-06-22T12:34:18;29.70;46.00
9425;DHT22;17139;52.140;11.636;2023-06-22T12:36:45;29.70;46.20
9425;DHT22;17139;52.140;11.636;2023-06-22T12:39:13;29.60;46.10
9425;DHT22;17139;52.140;11.636;2023-06-22T12:41:40;29.60;46.40
9425;DHT22;17139;52.140;11.636;2023-06-22T12:44:07;29.80;45.30
9425;DHT22;17139;52.140;11.636;2023-06-22T12:46:34;29.50;45.90
9425;DHT22;17139;52.140;11.636;2023-06-22T12:49:03;29.60;45.70
9425;DHT22;17139;52.140;11.636;2023-06-22T12:51:31;29.60;46.00
9425;DHT22;17139;52.140;11.636;2023-06-22T12:53:59;29.50;46.10
9425;DHT22;17139;52.140;11.636;2023-06-22T12:56:26;29.40;46.20
9425;DHT22;17139;52.140;11.636;2023-06-22T12:58:53;29.30;46.30
9425;DHT22;17139;52.140;11.636;2023-06-22T13:01:20;29.30;46.40
9425;DHT22;17139;52.140;11.636;2023-06-22T13:03:47;29.40;46.70
9425;DHT22;17139;52.140;11.636;2023-06-22T13:06:14;29.50;45.90
9425;DHT22;17139;52.140;11.636;2023-06-22T13:08:43;29.50;46.00
9425;DHT22;17139;52.140;11.636;2023-06-22T13:11:11;29.40;46.20
9425;DHT22;17139;52.140;11.636;2023-06-22T13:13:38;29.30;46.40
9425;DHT22;17139;52.140;11.636;2023-06-22T13:16:05;29.30;46.40
9425;DHT22;17139;52.140;11.636;2023-06-22T13:18:32;29.30;46.40
9425;DHT22;17139;52.140;11.636;2023-06-22T13:21:01;29.40;46.60
9425;DHT22;17139;52.140;11.636;2023-06-22T13:23:28;29.50;46.40
9425;DHT22;17139;52.140;11.636;2023-06-22T13:25:57;29.80;46.20
9425;DHT22;17139;52.140;11.636;2023-06-22T13:28:26;30.00;45.80
9425;DHT22;17139;52.140;11.636;2023-06-22T13:30:54;30.80;43.60
9425;DHT22;17139;52.140;11.636;2023-06-22T13:33:21;30.60;44.60
9425;DHT22;17139;52.140;11.636;2023-06-22T13:35:48;30.90;43.50
9425;DHT22;17139;52.140;11.636;2023-06-22T13:38:16;30.70;44.30
9425;DHT22;17139;52.140;11.636;2023-06-22T13:40:43;30.60;44.70
9425;DHT22;17139;52.140;11.636;2023-06-22T13:43:12;30.60;45.00
9425;DHT22;17139;52.140;11.636;2023-06-22T13:45:39;30.40;45.20
9425;DHT22;17139;52.140;11.636;2023-06-22T13:48:06;30.20;45.20
9425;DHT22;17139;52.140;11.636;2023-06-22T13:50:33;30.00;45.40
9425;DHT22;17139;52.140;11.636;2023-06-22T13:53:00;30.20;44.20
9425;DHT22;17139;52.140;11.636;2023-06-22T13:55:27;29.90;45.00
9425;DHT22;17139;52.140;11.636;2023-06-22T13:57:54;29.80;45.20
9425;DHT22;17139;52.140;11.636;2023-06-22T14:00:23;29.60;45.40
9425;DHT22;17139;52.140;11.636;2023-06-22T14:02:50;29.60;45.80
9425;DHT22;17139;52.140;11.636;2023-06-22T14:05:17;29.60;46.00
9425;DHT22;17139;52.140;11.636;2023-06-22T14:07:44;29.60;45.50
9425;DHT22;17139;52.140;11.636;2023-06-22T14:10:12;29.50;45.40
9425;DHT22;17139;52.140;11.636;2023-06-22T14:12:39;29.60;45.80
9425;DHT22;17139;52.140;11.636;2023-06-22T14:15:06;29.70;45.60
9425;DHT22;17139;52.140;11.636;2023-06-22T14:17:35;30.30;43.60
9425;DHT22;17139;52.140;11.636;2023-06-22T14:20:02;30.20;44.60
9425;DHT22;17139;52.140;11.636;2023-06-22T14:22:31;30.30;44.60
9425;DHT22;17139;52.140;11.636;2023-06-22T14:24:58;30.30;45.00
9425;DHT22;17139;52.140;11.636;2023-06-22T14:27:25;30.10;44.90
9425;DHT22;17139;52.140;11.636;2023-06-22T14:29:52;30.10;45.30
9425;DHT22;17139;52.140;11.636;2023-06-22T14:32:19;30.00;45.50
9425;DHT22;17139;52.140;11.636;2023-06-22T14:34:47;29.90;45.40
9425;DHT22;17139;52.140;11.636;2023-06-22T14:37:15;29.90;45.40
9425;DHT22;17139;52.140;11.636;2023-06-22T14:39:42;29.90;45.40
9425;DHT22;17139;52.140;11.636;2023-06-22T14:42:09;29.80;45.50
9425;DHT22;17139;52.140;11.636;2023-06-22T14:44:36;29.80;45.50
9425;DHT22;17139;52.140;11.636;2023-06-22T14:47:04;30.00;45.30
9425;DHT22;17139;52.140;11.636;2023-06-22T14:49:31;30.00;45.50
9425;DHT22;17139;52.140;11.636;2023-06-22T14:51:59;29.90;45.40
9425;DHT22;17139;52.140;11.636;2023-06-22T14:54:26;29.80;45.60
9425;DHT22;17139;52.140;11.636;2023-06-22T14:56:53;29.70;45.70
9425;DHT22;17139;52.140;11.636;2023-06-22T14:59:20;29.70;45.70
9425;DHT22;17139;52.140;11.636;2023-06-22T15:01:47;29.70;45.70
9425;DHT22;17139;52.140;11.636;2023-06-22T15:04:14;29.70;45.80
9425;DHT22;17139;52.140;11.636;2023-06-22T15:06:42;30.40;43.80
9425;DHT22;17139;52.140;11.636;2023-06-22T15:09:11;30.20;44.40
9425;DHT22;17139;52.140;11.636;2023-06-22T15:11:38;30.50;43.20
9425;DHT22;17139;52.140;11.636;2023-06-22T15:14:05;30.30;44.10
9425;DHT22;17139;52.140;11.636;2023-06-22T15:16:32;30.20;44.60
9425;DHT22;17139;52.140;11.636;2023-06-22T15:22:21;30.00;45.00
9425;DHT22;17139;52.140;11.636;2023-06-22T15:24:50;29.70;45.40
9425;DHT22;17139;52.140;11.636;2023-06-22T15:27:18;29.70;45.50
9425;DHT22;17139;52.140;11.636;2023-06-22T15:29:46;30.20;43.90
9425;DHT22;17139;52.140;11.636;2023-06-22T15:32:12;30.00;44.40
9425;DHT22;17139;52.140;11.636;2023-06-22T15:34:39;29.90;44.30
9425;DHT22;17139;52.140;11.636;2023-06-22T15:37:06;29.80;44.70